< < Back
Terminal Aerodrome Forecast


Current Version              Previous Versions:   1  2  3  4  5  6  7  8  9  

Terminal Aerodrome Forecast

082
FTUS42 KTAE 221720
TAFABY
TAF
KABY 221720Z 2218/2318 36005KT P6SM SCT250
     FM231200 08006KT P6SM FEW030 SCT150=



Latest METAR

376
SAUS70 KWBC 231200 RRH
MTRABY
METAR KABY 231153Z 07005KT 10SM CLR 19/17 A3031 RMK AO2 SLP263 T01940167
10200 20167 53020


USA.gov is the U.S. government's official web portal to all federal, state and local government web resources and services.